Baracoa, Cuba
Current Conditions -  °F | °C
As of 11:56 PM on Wednesday 22 Oct 2014 (Local Time) from MUGM Reporting Station
Broken Clouds Broken Clouds  
Wind Chill: 83°   Ceiling: 28000
Heat Index: 92°   Visibility: 6mi
Dew Point: 77°   Wind: 3mph
Humidity: 82%   Direction: 270°W
Pressure: 29.91"   Gusts: NA
Location:  20.35°N, 74.5°W
Report Text: MUGM 230356Z 27003KT 9999 FEW030 BKN280 28/25 A2991 RMK SLP129 T02830250
Loading
Personal Weather Stations






























Interactive Weather Map
Tropical Storm Tracking
New forecast layout! Learn more

10-Day Weather Forecast

Advertisements
Track Severe Weather on mobile